sensor_id;sensor_type;location;lat;lon;timestamp;pressure;altitude;pressure_sealevel;temperature
50206;BMP280;36098;48.390;10.856;2022-11-20T00:02:23;95482.22;;;22.92
50206;BMP280;36098;48.390;10.856;2022-11-20T00:04:49;95484.19;;;22.82
50206;BMP280;36098;48.390;10.856;2022-11-20T00:07:14;95479.53;;;22.74
50206;BMP280;36098;48.390;10.856;2022-11-20T00:09:39;95479.78;;;22.77
50206;BMP280;36098;48.390;10.856;2022-11-20T00:12:05;95482.91;;;22.79
50206;BMP280;36098;48.390;10.856;2022-11-20T00:14:30;95479.50;;;22.79
50206;BMP280;36098;48.390;10.856;2022-11-20T00:16:55;95482.13;;;22.79
50206;BMP280;36098;48.390;10.856;2022-11-20T00:19:20;95481.59;;;22.77
50206;BMP280;36098;48.390;10.856;2022-11-20T00:21:45;95484.81;;;22.74
50206;BMP280;36098;48.390;10.856;2022-11-20T00:24:11;95489.00;;;22.75
50206;BMP280;36098;48.390;10.856;2022-11-20T00:26:36;95488.50;;;22.73
50206;BMP280;36098;48.390;10.856;2022-11-20T00:29:02;95496.97;;;22.70
50206;BMP280;36098;48.390;10.856;2022-11-20T00:31:28;95496.69;;;22.71
50206;BMP280;36098;48.390;10.856;2022-11-20T00:33:54;95496.97;;;22.70
50206;BMP280;36098;48.390;10.856;2022-11-20T00:36:22;95496.47;;;22.68
50206;BMP280;36098;48.390;10.856;2022-11-20T00:38:51;95502.78;;;22.67
50206;BMP280;36098;48.390;10.856;2022-11-20T00:41:17;95508.59;;;22.64
50206;BMP280;36098;48.390;10.856;2022-11-20T00:43:43;95504.41;;;22.63
50206;BMP280;36098;48.390;10.856;2022-11-20T00:46:16;95503.13;;;22.60
50206;BMP280;36098;48.390;10.856;2022-11-20T00:48:43;95499.41;;;22.61
50206;BMP280;36098;48.390;10.856;2022-11-20T00:51:09;95502.34;;;22.60
50206;BMP280;36098;48.390;10.856;2022-11-20T00:53:35;95498.16;;;22.59
50206;BMP280;36098;48.390;10.856;2022-11-20T00:56:07;95507.59;;;22.60
50206;BMP280;36098;48.390;10.856;2022-11-20T00:58:34;95502.09;;;22.56
50206;BMP280;36098;48.390;10.856;2022-11-20T01:01:04;95504.72;;;22.56
50206;BMP280;36098;48.390;10.856;2022-11-20T01:03:31;95513.47;;;22.52
50206;BMP280;36098;48.390;10.856;2022-11-20T01:06:01;95511.38;;;22.49
50206;BMP280;36098;48.390;10.856;2022-11-20T01:08:30;95514.00;;;22.49
50206;BMP280;36098;48.390;10.856;2022-11-20T01:11:03;95522.97;;;22.48
50206;BMP280;36098;48.390;10.856;2022-11-20T01:13:30;95519.28;;;22.49
50206;BMP280;36098;48.390;10.856;2022-11-20T01:16:11;95516.41;;;22.45
50206;BMP280;36098;48.390;10.856;2022-11-20T01:18:38;95515.63;;;22.45
50206;BMP280;36098;48.390;10.856;2022-11-20T01:21:12;95519.34;;;22.44
50206;BMP280;36098;48.390;10.856;2022-11-20T01:23:40;95521.72;;;22.40
50206;BMP280;36098;48.390;10.856;2022-11-20T01:26:07;95527.28;;;22.39
50206;BMP280;36098;48.390;10.856;2022-11-20T01:28:33;95519.63;;;22.37
50206;BMP280;36098;48.390;10.856;2022-11-20T01:30:59;95525.41;;;22.39
50206;BMP280;36098;48.390;10.856;2022-11-20T01:33:24;95530.94;;;22.38
50206;BMP280;36098;48.390;10.856;2022-11-20T01:35:50;95530.16;;;22.37
50206;BMP280;36098;48.390;10.856;2022-11-20T01:38:16;95525.94;;;22.36
50206;BMP280;36098;48.390;10.856;2022-11-20T01:40:41;95534.59;;;22.37
50206;BMP280;36098;48.390;10.856;2022-11-20T01:43:25;95535.97;;;22.34
50206;BMP280;36098;48.390;10.856;2022-11-20T01:48:43;95539.66;;;22.33
50206;BMP280;36098;48.390;10.856;2022-11-20T01:51:33;95535.72;;;22.31
50206;BMP280;36098;48.390;10.856;2022-11-20T01:54:02;95538.66;;;22.29
50206;BMP280;36098;48.390;10.856;2022-11-20T01:56:31;95536.78;;;22.30
50206;BMP280;36098;48.390;10.856;2022-11-20T01:59:01;95539.41;;;22.30
50206;BMP280;36098;48.390;10.856;2022-11-20T02:01:27;95536.28;;;22.28
50206;BMP280;36098;48.390;10.856;2022-11-20T02:03:52;95537.59;;;22.25
50206;BMP280;36098;48.390;10.856;2022-11-20T02:06:52;95531.56;;;22.25
50206;BMP280;36098;48.390;10.856;2022-11-20T02:09:19;95540.53;;;22.24
50206;BMP280;36098;48.390;10.856;2022-11-20T02:11:44;95536.03;;;22.24
50206;BMP280;36098;48.390;10.856;2022-11-20T02:14:10;95529.50;;;22.22
50206;BMP280;36098;48.390;10.856;2022-11-20T02:16:37;95533.19;;;22.21
50206;BMP280;36098;48.390;10.856;2022-11-20T02:19:07;95524.50;;;22.20
50206;BMP280;36098;48.390;10.856;2022-11-20T02:21:40;95523.75;;;22.20
50206;BMP280;36098;48.390;10.856;2022-11-20T02:24:14;95529.00;;;22.20
50206;BMP280;36098;48.390;10.856;2022-11-20T02:29:08;95524.50;;;22.20
50206;BMP280;36098;48.390;10.856;2022-11-20T02:31:38;95523.19;;;22.18
50206;BMP280;36098;48.390;10.856;2022-11-20T02:34:05;95518.75;;;22.18
50206;BMP280;36098;48.390;10.856;2022-11-20T02:36:31;95520.56;;;22.18
50206;BMP280;36098;48.390;10.856;2022-11-20T02:38:57;95519.00;;;22.17
50206;BMP280;36098;48.390;10.856;2022-11-20T02:41:31;95520.06;;;22.16
50206;BMP280;36098;48.390;10.856;2022-11-20T02:43:57;95521.94;;;22.15
50206;BMP280;36098;48.390;10.856;2022-11-20T02:46:22;95526.91;;;22.17
50206;BMP280;36098;48.390;10.856;2022-11-20T02:48:47;95527.94;;;22.16
50206;BMP280;36098;48.390;10.856;2022-11-20T02:51:12;95519.81;;;22.17
50206;BMP280;36098;48.390;10.856;2022-11-20T02:53:38;95523.50;;;22.16
50206;BMP280;36098;48.390;10.856;2022-11-20T02:56:03;95521.13;;;22.15
50206;BMP280;36098;48.390;10.856;2022-11-20T02:58:29;95524.81;;;22.14
50206;BMP280;36098;48.390;10.856;2022-11-20T03:00:54;95522.47;;;22.12
50206;BMP280;36098;48.390;10.856;2022-11-20T03:03:19;95521.69;;;22.12
50206;BMP280;36098;48.390;10.856;2022-11-20T03:05:44;95520.13;;;22.11
50206;BMP280;36098;48.390;10.856;2022-11-20T03:08:10;95524.59;;;22.10
50206;BMP280;36098;48.390;10.856;2022-11-20T03:10:35;95522.75;;;22.11
50206;BMP280;36098;48.390;10.856;2022-11-20T03:13:00;95524.59;;;22.10
50206;BMP280;36098;48.390;10.856;2022-11-20T03:15:25;95520.66;;;22.08
50206;BMP280;36098;48.390;10.856;2022-11-20T03:17:54;95525.66;;;22.09
50206;BMP280;36098;48.390;10.856;2022-11-20T03:20:21;95521.72;;;22.07
50206;BMP280;36098;48.390;10.856;2022-11-20T03:22:46;95517.53;;;22.06
50206;BMP280;36098;48.390;10.856;2022-11-20T03:25:12;95526.50;;;22.05
50206;BMP280;36098;48.390;10.856;2022-11-20T03:27:37;95518.59;;;22.05
50206;BMP280;36098;48.390;10.856;2022-11-20T03:30:02;95520.72;;;22.03
50206;BMP280;36098;48.390;10.856;2022-11-20T03:32:28;95518.31;;;22.06
50206;BMP280;36098;48.390;10.856;2022-11-20T03:34:53;95526.50;;;22.05
50206;BMP280;36098;48.390;10.856;2022-11-20T03:37:19;95514.41;;;22.04
50206;BMP280;36098;48.390;10.856;2022-11-20T03:39:44;95522.53;;;22.02
50206;BMP280;36098;48.390;10.856;2022-11-20T03:42:10;95513.88;;;22.02
50206;BMP280;36098;48.390;10.856;2022-11-20T03:45:07;95521.78;;;22.02
50206;BMP280;36098;48.390;10.856;2022-11-20T03:47:33;95519.41;;;22.00
50206;BMP280;36098;48.390;10.856;2022-11-20T03:49:58;95518.66;;;22.00
50206;BMP280;36098;48.390;10.856;2022-11-20T03:52:23;95512.34;;;21.96
50206;BMP280;36098;48.390;10.856;2022-11-20T03:54:48;95513.91;;;21.97
50206;BMP280;36098;48.390;10.856;2022-11-20T03:57:14;95518.09;;;21.98
50206;BMP280;36098;48.390;10.856;2022-11-20T03:59:39;95519.16;;;21.97
50206;BMP280;36098;48.390;10.856;2022-11-20T04:02:04;95522.31;;;21.99
50206;BMP280;36098;48.390;10.856;2022-11-20T04:04:29;95515.47;;;21.98
50206;BMP280;36098;48.390;10.856;2022-11-20T04:06:55;95516.84;;;21.95
50206;BMP280;36098;48.390;10.856;2022-11-20T04:09:20;95520.78;;;21.93
50206;BMP280;36098;48.390;10.856;2022-11-20T04:11:45;95522.63;;;21.92
50206;BMP280;36098;48.390;10.856;2022-11-20T04:14:15;95515.00;;;21.91
50206;BMP280;36098;48.390;10.856;2022-11-20T04:16:41;95520.81;;;21.88
50206;BMP280;36098;48.390;10.856;2022-11-20T04:19:10;95525.53;;;21.91
50206;BMP280;36098;48.390;10.856;2022-11-20T04:21:36;95523.69;;;21.91
50206;BMP280;36098;48.390;10.856;2022-11-20T04:24:02;95531.06;;;21.89
50206;BMP280;36098;48.390;10.856;2022-11-20T04:26:28;95518.97;;;21.88
50206;BMP280;36098;48.390;10.856;2022-11-20T04:28:54;95515.84;;;21.86
50206;BMP280;36098;48.390;10.856;2022-11-20T04:31:24;95505.59;;;21.85
50206;BMP280;36098;48.390;10.856;2022-11-20T04:33:50;95513.75;;;21.83
50206;BMP280;36098;48.390;10.856;2022-11-20T04:36:20;95510.06;;;21.84
50206;BMP280;36098;48.390;10.856;2022-11-20T04:38:46;95514.56;;;21.84
50206;BMP280;36098;48.390;10.856;2022-11-20T04:41:17;95519.81;;;21.84
50206;BMP280;36098;48.390;10.856;2022-11-20T04:43:46;95511.94;;;21.84
50206;BMP280;36098;48.390;10.856;2022-11-20T04:46:13;95516.66;;;21.82
50206;BMP280;36098;48.390;10.856;2022-11-20T04:48:39;95516.66;;;21.82
50206;BMP280;36098;48.390;10.856;2022-11-20T04:51:04;95507.47;;;21.79
50206;BMP280;36098;48.390;10.856;2022-11-20T04:53:30;95509.06;;;21.80
50206;BMP280;36098;48.390;10.856;2022-11-20T04:56:00;95511.16;;;21.78
50206;BMP280;36098;48.390;10.856;2022-11-20T04:58:25;95511.16;;;21.78
50206;BMP280;36098;48.390;10.856;2022-11-20T05:00:51;95505.13;;;21.78
50206;BMP280;36098;48.390;10.856;2022-11-20T05:03:16;95512.50;;;21.76
50206;BMP280;36098;48.390;10.856;2022-11-20T05:05:42;95515.97;;;21.71
50206;BMP280;36098;48.390;10.856;2022-11-20T05:08:07;95514.09;;;21.72
50206;BMP280;36098;48.390;10.856;2022-11-20T05:10:32;95508.06;;;21.71
50206;BMP280;36098;48.390;10.856;2022-11-20T05:12:57;95503.31;;;21.73
50206;BMP280;36098;48.390;10.856;2022-11-20T05:15:23;95506.22;;;21.72
50206;BMP280;36098;48.390;10.856;2022-11-20T05:17:52;95508.59;;;21.73
50206;BMP280;36098;48.390;10.856;2022-11-20T05:20:18;95509.34;;;21.74
50206;BMP280;36098;48.390;10.856;2022-11-20T05:22:44;95510.16;;;21.74
50206;BMP280;36098;48.390;10.856;2022-11-20T05:25:10;95502.53;;;21.73
50206;BMP280;36098;48.390;10.856;2022-11-20T05:27:36;95507.81;;;21.68
50206;BMP280;36098;48.390;10.856;2022-11-20T05:30:01;95507.31;;;21.66
50206;BMP280;36098;48.390;10.856;2022-11-20T05:32:26;95514.13;;;21.67
50206;BMP280;36098;48.390;10.856;2022-11-20T05:34:52;95520.16;;;21.67
50206;BMP280;36098;48.390;10.856;2022-11-20T05:37:17;95511.78;;;21.65
50206;BMP280;36098;48.390;10.856;2022-11-20T05:39:43;95520.72;;;21.64
50206;BMP280;36098;48.390;10.856;2022-11-20T05:42:08;95513.09;;;21.68
50206;BMP280;36098;48.390;10.856;2022-11-20T05:44:52;95521.00;;;21.63
50206;BMP280;36098;48.390;10.856;2022-11-20T05:47:17;95513.34;;;21.61
50206;BMP280;36098;48.390;10.856;2022-11-20T05:49:43;95515.97;;;21.61
50206;BMP280;36098;48.390;10.856;2022-11-20T05:52:08;95522.28;;;21.60
50206;BMP280;36098;48.390;10.856;2022-11-20T05:54:33;95525.72;;;21.61
50206;BMP280;36098;48.390;10.856;2022-11-20T05:56:58;95527.81;;;21.59
50206;BMP280;36098;48.390;10.856;2022-11-20T05:59:24;95524.66;;;21.57
50206;BMP280;36098;48.390;10.856;2022-11-20T06:01:49;95521.28;;;21.56
50206;BMP280;36098;48.390;10.856;2022-11-20T06:04:15;95526.53;;;21.56
50206;BMP280;36098;48.390;10.856;2022-11-20T06:06:40;95530.44;;;21.59
50206;BMP280;36098;48.390;10.856;2022-11-20T06:09:05;95519.41;;;21.57
50206;BMP280;36098;48.390;10.856;2022-11-20T06:11:31;95518.66;;;21.56
50206;BMP280;36098;48.390;10.856;2022-11-20T06:13:56;95525.72;;;21.56
50206;BMP280;36098;48.390;10.856;2022-11-20T06:16:21;95530.97;;;21.56
50206;BMP280;36098;48.390;10.856;2022-11-20T06:18:47;95532.03;;;21.55
50206;BMP280;36098;48.390;10.856;2022-11-20T06:21:16;95530.47;;;21.54
50206;BMP280;36098;48.390;10.856;2022-11-20T06:23:42;95534.72;;;21.50
50206;BMP280;36098;48.390;10.856;2022-11-20T06:26:12;95537.59;;;21.48
50206;BMP280;36098;48.390;10.856;2022-11-20T06:28:37;95536.81;;;21.48
50206;BMP280;36098;48.390;10.856;2022-11-20T06:31:04;95536.28;;;21.51
50206;BMP280;36098;48.390;10.856;2022-11-20T06:33:29;95527.63;;;21.50
50206;BMP280;36098;48.390;10.856;2022-11-20T06:35:59;95535.25;;;21.47
50206;BMP280;36098;48.390;10.856;2022-11-20T06:38:26;95541.28;;;21.47
50206;BMP280;36098;48.390;10.856;2022-11-20T06:40:51;95542.88;;;21.43
50206;BMP280;36098;48.390;10.856;2022-11-20T06:43:16;95548.41;;;21.42
50206;BMP280;36098;48.390;10.856;2022-11-20T06:45:42;95544.75;;;21.43
50206;BMP280;36098;48.390;10.856;2022-11-20T06:48:08;95547.06;;;21.44
50206;BMP280;36098;48.390;10.856;2022-11-20T06:50:33;95547.06;;;21.44
50206;BMP280;36098;48.390;10.856;2022-11-20T06:53:02;95553.38;;;21.43
50206;BMP280;36098;48.390;10.856;2022-11-20T06:55:28;95553.72;;;21.32
50206;BMP280;36098;48.390;10.856;2022-11-20T06:57:53;95560.56;;;21.28
50206;BMP280;36098;48.390;10.856;2022-11-20T07:00:18;95562.09;;;21.34
50206;BMP280;36098;48.390;10.856;2022-11-20T07:02:44;95563.13;;;21.43
50206;BMP280;36098;48.390;10.856;2022-11-20T07:05:09;95558.38;;;21.40
50206;BMP280;36098;48.390;10.856;2022-11-20T07:07:34;95558.94;;;21.37
50206;BMP280;36098;48.390;10.856;2022-11-20T07:10:00;95570.78;;;21.35
50206;BMP280;36098;48.390;10.856;2022-11-20T07:12:25;95562.69;;;21.16
50206;BMP280;36098;48.390;10.856;2022-11-20T07:14:50;95562.41;;;21.23
50206;BMP280;36098;48.390;10.856;2022-11-20T07:17:15;95557.19;;;21.18
50206;BMP280;36098;48.390;10.856;2022-11-20T07:19:41;95555.34;;;21.18
50206;BMP280;36098;48.390;10.856;2022-11-20T07:22:08;95561.66;;;21.22
50206;BMP280;36098;48.390;10.856;2022-11-20T07:24:33;95569.44;;;21.42
50206;BMP280;36098;48.390;10.856;2022-11-20T07:26:58;95567.88;;;21.41
50206;BMP280;36098;48.390;10.856;2022-11-20T07:29:23;95563.22;;;21.23
50206;BMP280;36098;48.390;10.856;2022-11-20T07:31:49;95566.88;;;21.27
50206;BMP280;36098;48.390;10.856;2022-11-20T07:34:14;95575.75;;;21.36
50206;BMP280;36098;48.390;10.856;2022-11-20T07:36:40;95574.22;;;21.25
50206;BMP280;36098;48.390;10.856;2022-11-20T07:39:05;95570.34;;;21.13
50206;BMP280;36098;48.390;10.856;2022-11-20T07:41:30;95572.06;;;21.37
50206;BMP280;36098;48.390;10.856;2022-11-20T07:43:56;95568.94;;;21.30
50206;BMP280;36098;48.390;10.856;2022-11-20T07:46:21;95567.31;;;21.44
50206;BMP280;36098;48.390;10.856;2022-11-20T07:48:46;95560.16;;;21.54
50206;BMP280;36098;48.390;10.856;2022-11-20T07:51:12;95549.91;;;21.53
50206;BMP280;36098;48.390;10.856;2022-11-20T07:53:38;95563.31;;;21.56
50206;BMP280;36098;48.390;10.856;2022-11-20T07:56:03;95565.13;;;21.56
50206;BMP280;36098;48.390;10.856;2022-11-20T07:58:29;95562.50;;;21.56
50206;BMP280;36098;48.390;10.856;2022-11-20T08:00:55;95557.84;;;21.48
50206;BMP280;36098;48.390;10.856;2022-11-20T08:03:21;95564.69;;;21.44
50206;BMP280;36098;48.390;10.856;2022-11-20T08:05:46;95569.44;;;21.37
50206;BMP280;36098;48.390;10.856;2022-11-20T08:08:11;95567.31;;;21.39
50206;BMP280;36098;48.390;10.856;2022-11-20T08:10:37;95575.19;;;21.39
50206;BMP280;36098;48.390;10.856;2022-11-20T08:13:02;95566.31;;;21.30
50206;BMP280;36098;48.390;10.856;2022-11-20T08:15:50;95563.13;;;21.38
50206;BMP280;36098;48.390;10.856;2022-11-20T08:18:18;95556.53;;;21.50
50206;BMP280;36098;48.390;10.856;2022-11-20T08:20:44;95562.78;;;21.54
50206;BMP280;36098;48.390;10.856;2022-11-20T08:23:10;95568.13;;;21.39
50206;BMP280;36098;48.390;10.856;2022-11-20T08:25:36;95570.28;;;21.23
50206;BMP280;36098;48.390;10.856;2022-11-20T08:28:08;95576.53;;;21.37
50206;BMP280;36098;48.390;10.856;2022-11-20T08:30:34;95580.97;;;21.46
50206;BMP280;36098;48.390;10.856;2022-11-20T08:33:05;95579.69;;;21.38
50206;BMP280;36098;48.390;10.856;2022-11-20T08:35:35;95572.88;;;21.28
50206;BMP280;36098;48.390;10.856;2022-11-20T08:38:05;95582.66;;;21.17
50206;BMP280;36098;48.390;10.856;2022-11-20T08:40:31;95580.50;;;21.29
50206;BMP280;36098;48.390;10.856;2022-11-20T08:42:56;95575.78;;;21.31
50206;BMP280;36098;48.390;10.856;2022-11-20T08:45:21;95579.94;;;21.37
50206;BMP280;36098;48.390;10.856;2022-11-20T08:47:47;95570.22;;;21.38
50206;BMP280;36098;48.390;10.856;2022-11-20T08:50:14;95579.19;;;21.32
50206;BMP280;36098;48.390;10.856;2022-11-20T08:52:40;95573.94;;;21.32
50206;BMP280;36098;48.390;10.856;2022-11-20T08:55:07;95569.97;;;21.34
50206;BMP280;36098;48.390;10.856;2022-11-20T08:57:33;95573.41;;;21.35
50206;BMP280;36098;48.390;10.856;2022-11-20T08:59:59;95572.09;;;21.32
50206;BMP280;36098;48.390;10.856;2022-11-20T09:02:24;95576.81;;;21.35
50206;BMP280;36098;48.390;10.856;2022-11-20T09:04:49;95572.63;;;21.29
50206;BMP280;36098;48.390;10.856;2022-11-20T09:07:14;95576.81;;;21.30
50206;BMP280;36098;48.390;10.856;2022-11-20T09:09:40;95572.13;;;21.27
50206;BMP280;36098;48.390;10.856;2022-11-20T09:12:05;95576.31;;;21.28
50206;BMP280;36098;48.390;10.856;2022-11-20T09:14:30;95573.69;;;21.28
50206;BMP280;36098;48.390;10.856;2022-11-20T09:16:56;95581.56;;;21.28
50206;BMP280;36098;48.390;10.856;2022-11-20T09:19:23;95578.44;;;21.21
50206;BMP280;36098;48.390;10.856;2022-11-20T09:21:49;95578.72;;;21.20
50206;BMP280;36098;48.390;10.856;2022-11-20T09:24:14;95582.91;;;21.21
50206;BMP280;36098;48.390;10.856;2022-11-20T09:26:39;95580.03;;;21.22
50206;BMP280;36098;48.390;10.856;2022-11-20T09:29:05;95576.34;;;21.18
50206;BMP280;36098;48.390;10.856;2022-11-20T09:31:30;95577.91;;;21.19
50206;BMP280;36098;48.390;10.856;2022-11-20T09:33:56;95578.97;;;21.23
50206;BMP280;36098;48.390;10.856;2022-11-20T09:36:21;95580.53;;;21.24
50206;BMP280;36098;48.390;10.856;2022-11-20T09:38:47;95574.78;;;21.22
50206;BMP280;36098;48.390;10.856;2022-11-20T09:44:18;95573.22;;;21.11
50206;BMP280;36098;48.390;10.856;2022-11-20T09:46:54;95574.25;;;21.15
50206;BMP280;36098;48.390;10.856;2022-11-20T09:49:36;95566.13;;;21.17
50206;BMP280;36098;48.390;10.856;2022-11-20T09:54:45;95573.44;;;21.25
50206;BMP280;36098;48.390;10.856;2022-11-20T09:57:20;95570.03;;;21.19
50206;BMP280;36098;48.390;10.856;2022-11-20T09:59:50;95561.13;;;21.15
50206;BMP280;36098;48.390;10.856;2022-11-20T10:02:37;95554.31;;;21.14
50206;BMP280;36098;48.390;10.856;2022-11-20T10:05:10;95560.59;;;21.18
50206;BMP280;36098;48.390;10.856;2022-11-20T10:07:40;95551.66;;;21.19
50206;BMP280;36098;48.390;10.856;2022-11-20T10:10:16;95556.13;;;21.19
50206;BMP280;36098;48.390;10.856;2022-11-20T10:15:33;95550.59;;;21.20
50206;BMP280;36098;48.390;10.856;2022-11-20T10:18:17;95549.06;;;21.14
50206;BMP280;36098;48.390;10.856;2022-11-20T10:31:33;95569.81;;;21.16
50206;BMP280;36098;48.390;10.856;2022-11-20T10:34:02;95569.03;;;21.10
50206;BMP280;36098;48.390;10.856;2022-11-20T10:36:34;95562.19;;;21.14
50206;BMP280;36098;48.390;10.856;2022-11-20T10:39:06;95573.19;;;21.16
50206;BMP280;36098;48.390;10.856;2022-11-20T10:41:37;95563.22;;;21.18
50206;BMP280;36098;48.390;10.856;2022-11-20T10:44:10;95566.16;;;21.12
50206;BMP280;36098;48.390;10.856;2022-11-20T10:46:40;95571.13;;;21.13
50206;BMP280;36098;48.390;10.856;2022-11-20T10:49:15;95556.97;;;21.09
50206;BMP280;36098;48.390;10.856;2022-11-20T10:52:06;95561.16;;;21.10
50206;BMP280;36098;48.390;10.856;2022-11-20T11:02:39;95556.41;;;21.12
50206;BMP280;36098;48.390;10.856;2022-11-20T11:05:39;95556.94;;;21.14
50206;BMP280;36098;48.390;10.856;2022-11-20T11:08:10;95553.78;;;21.12
50206;BMP280;36098;48.390;10.856;2022-11-20T11:10:47;95553.53;;;21.09
50206;BMP280;36098;48.390;10.856;2022-11-20T11:13:25;95554.91;;;20.96
50206;BMP280;36098;48.390;10.856;2022-11-20T11:15:50;95547.56;;;20.93
50206;BMP280;36098;48.390;10.856;2022-11-20T11:18:42;95547.03;;;20.96
50206;BMP280;36098;48.390;10.856;2022-11-20T11:21:08;95538.09;;;20.97
50206;BMP280;36098;48.390;10.856;2022-11-20T11:23:42;95530.22;;;20.97
50206;BMP280;36098;48.390;10.856;2022-11-20T11:26:34;95527.06;;;21.00
50206;BMP280;36098;48.390;10.856;2022-11-20T11:29:02;95544.91;;;20.98
50206;BMP280;36098;48.390;10.856;2022-11-20T11:31:33;95535.22;;;20.99
50206;BMP280;36098;48.390;10.856;2022-11-20T11:34:15;95539.69;;;20.93
50206;BMP280;36098;48.390;10.856;2022-11-20T11:36:41;95534.94;;;20.95
50206;BMP280;36098;48.390;10.856;2022-11-20T11:39:18;95531.25;;;21.01
50206;BMP280;36098;48.390;10.856;2022-11-20T11:41:44;95528.38;;;21.03
50206;BMP280;36098;48.390;10.856;2022-11-20T11:44:33;95519.72;;;20.97
50206;BMP280;36098;48.390;10.856;2022-11-20T11:47:26;95523.66;;;21.00
50206;BMP280;36098;48.390;10.856;2022-11-20T11:53:13;95517.59;;;20.99
50206;BMP280;36098;48.390;10.856;2022-11-20T12:00:45;95519.69;;;21.07
50206;BMP280;36098;48.390;10.856;2022-11-20T12:03:35;95521.25;;;21.08
50206;BMP280;36098;48.390;10.856;2022-11-20T12:06:06;95520.22;;;21.09
50206;BMP280;36098;48.390;10.856;2022-11-20T12:08:55;95518.38;;;21.05
50206;BMP280;36098;48.390;10.856;2022-11-20T12:11:37;95511.59;;;20.89
50206;BMP280;36098;48.390;10.856;2022-11-20T12:14:57;95514.47;;;20.97
50206;BMP280;36098;48.390;10.856;2022-11-20T12:17:17;95514.19;;;21.04
50206;BMP280;36098;48.390;10.856;2022-11-20T12:19:43;95513.16;;;21.00
50206;BMP280;36098;48.390;10.856;2022-11-20T12:25:10;95512.41;;;20.89
50206;BMP280;36098;48.390;10.856;2022-11-20T12:27:59;95514.50;;;20.77
50206;BMP280;36098;48.390;10.856;2022-11-20T12:30:26;95517.38;;;20.81
50206;BMP280;36098;48.390;10.856;2022-11-20T12:33:18;95510.88;;;20.68
50206;BMP280;36098;48.390;10.856;2022-11-20T12:44:00;95509.34;;;20.47
50206;BMP280;36098;48.390;10.856;2022-11-20T12:47:02;95522.72;;;20.46
50206;BMP280;36098;48.390;10.856;2022-11-20T12:52:57;95509.34;;;20.47
50206;BMP280;36098;48.390;10.856;2022-11-20T12:55:50;95502.00;;;20.49
50206;BMP280;36098;48.390;10.856;2022-11-20T12:58:26;95497.00;;;20.48
50206;BMP280;36098;48.390;10.856;2022-11-20T13:01:02;95496.22;;;20.52
50206;BMP280;36098;48.390;10.856;2022-11-20T13:03:37;95499.59;;;20.73
50206;BMP280;36098;48.390;10.856;2022-11-20T13:06:15;95501.59;;;21.01
50206;BMP280;36098;48.390;10.856;2022-11-20T13:08:47;95499.22;;;21.04
50206;BMP280;36098;48.390;10.856;2022-11-20T13:11:33;95504.47;;;21.04
50206;BMP280;36098;48.390;10.856;2022-11-20T13:14:19;95505.53;;;21.03
50206;BMP280;36098;48.390;10.856;2022-11-20T13:17:04;95502.91;;;20.98
50206;BMP280;36098;48.390;10.856;2022-11-20T13:19:31;95502.41;;;20.96
50206;BMP280;36098;48.390;10.856;2022-11-20T13:21:56;95499.53;;;20.93
50206;BMP280;36098;48.390;10.856;2022-11-20T13:24:23;95498.78;;;20.87
50206;BMP280;36098;48.390;10.856;2022-11-20T13:27:03;95489.59;;;20.85
50206;BMP280;36098;48.390;10.856;2022-11-20T13:29:29;95488.81;;;20.84
50206;BMP280;36098;48.390;10.856;2022-11-20T13:34:39;95486.72;;;20.86
50206;BMP280;36098;48.390;10.856;2022-11-20T13:37:04;95490.09;;;20.87
50206;BMP280;36098;48.390;10.856;2022-11-20T13:39:34;95476.66;;;20.98
50206;BMP280;36098;48.390;10.856;2022-11-20T13:44:45;95485.63;;;20.92
50206;BMP280;36098;48.390;10.856;2022-11-20T13:47:23;95484.06;;;20.91
50206;BMP280;36098;48.390;10.856;2022-11-20T13:49:48;95472.97;;;21.04
50206;BMP280;36098;48.390;10.856;2022-11-20T14:00:18;95480.41;;;20.87
50206;BMP280;36098;48.390;10.856;2022-11-20T14:03:16;95481.94;;;20.93
50206;BMP280;36098;48.390;10.856;2022-11-20T14:05:51;95484.34;;;20.85
50206;BMP280;36098;48.390;10.856;2022-11-20T14:08:37;95478.81;;;20.76
50206;BMP280;36098;48.390;10.856;2022-11-20T14:16:20;95487.72;;;20.80
50206;BMP280;36098;48.390;10.856;2022-11-20T14:18:45;95491.94;;;20.76
50206;BMP280;36098;48.390;10.856;2022-11-20T14:21:10;95487.75;;;20.75
50206;BMP280;36098;48.390;10.856;2022-11-20T14:23:35;95483.78;;;20.88
50206;BMP280;36098;48.390;10.856;2022-11-20T14:26:01;95486.44;;;20.78
50206;BMP280;36098;48.390;10.856;2022-11-20T14:28:28;95490.88;;;20.77
50206;BMP280;36098;48.390;10.856;2022-11-20T14:30:54;95491.94;;;20.76
50206;BMP280;36098;48.390;10.856;2022-11-20T14:33:20;95482.00;;;20.83
50206;BMP280;36098;48.390;10.856;2022-11-20T14:35:52;95473.56;;;20.81
50206;BMP280;36098;48.390;10.856;2022-11-20T14:38:22;95471.00;;;20.66
50206;BMP280;36098;48.390;10.856;2022-11-20T14:40:47;95467.59;;;20.61
50206;BMP280;36098;48.390;10.856;2022-11-20T14:43:22;95475.50;;;20.56
50206;BMP280;36098;48.390;10.856;2022-11-20T14:46:05;95471.03;;;20.56
50206;BMP280;36098;48.390;10.856;2022-11-20T14:48:37;95475.47;;;20.66
50206;BMP280;36098;48.390;10.856;2022-11-20T14:51:03;95474.16;;;20.63
50206;BMP280;36098;48.390;10.856;2022-11-20T14:53:29;95464.19;;;20.65
50206;BMP280;36098;48.390;10.856;2022-11-20T14:55:59;95478.84;;;20.71
50206;BMP280;36098;48.390;10.856;2022-11-20T14:58:27;95466.00;;;20.65
50206;BMP280;36098;48.390;10.856;2022-11-20T15:03:22;95472.28;;;20.69
50206;BMP280;36098;48.390;10.856;2022-11-20T15:05:50;95464.22;;;20.50
50206;BMP280;36098;48.390;10.856;2022-11-20T15:08:16;95478.66;;;20.48
50206;BMP280;36098;48.390;10.856;2022-11-20T15:10:46;95473.16;;;20.44
50206;BMP280;36098;48.390;10.856;2022-11-20T15:13:15;95466.34;;;20.48
50206;BMP280;36098;48.390;10.856;2022-11-20T15:15:47;95473.13;;;20.64
50206;BMP280;36098;48.390;10.856;2022-11-20T15:18:16;95466.31;;;20.63
50206;BMP280;36098;48.390;10.856;2022-11-20T15:20:43;95458.72;;;20.57
50206;BMP280;36098;48.390;10.856;2022-11-20T15:23:11;95465.75;;;20.66
50206;BMP280;36098;48.390;10.856;2022-11-20T15:25:38;95460.50;;;20.66